Terminal Aerodrome Forecast
Issued by NWS Charleston, WV

Current Version | Previous Version | Text Only | Print | Product List | Glossary Off
Versions: 1 2 3 4 5 6 7 8 9 10 11 12 13 14 15 16 17 18 19 20 21

000
FTUS41 KRLX 110800 AAA
TAFHTS
TAF AMD
KHTS 110845Z 1109/1206 00000KT 6SM BR SKC
      TEMPO 1109/1110 3SM BR
     FM111000 00000KT 3SM BR SKC
      TEMPO 1110/1112 3/4SM BR
     FM111300 00000KT P6SM FEW050
     FM120500 00000KT 6SM BR FEW250=

USA.gov is the U.S. government's official web portal to all federal, state and local government web resources and services.